createdAt,value
2017-10-11T00:02:42.585Z,14.89
2017-10-11T00:07:37.923Z,14.92
2017-10-11T00:12:34.506Z,14.85
2017-10-11T00:17:30.641Z,14.86
2017-10-11T00:22:27.329Z,14.84
2017-10-11T00:27:22.914Z,14.82
2017-10-11T00:32:18.821Z,14.78
2017-10-11T00:37:14.438Z,14.85
2017-10-11T00:42:10.390Z,14.82
2017-10-11T00:47:06.269Z,14.81
2017-10-11T00:52:02.265Z,14.84
2017-10-11T00:56:58.113Z,14.81
2017-10-11T01:01:53.955Z,14.79
2017-10-11T01:06:50.124Z,14.79
2017-10-11T01:11:46.083Z,14.78
2017-10-11T01:16:42.005Z,14.70
2017-10-11T01:21:39.594Z,14.73
2017-10-11T01:26:36.037Z,14.68
2017-10-11T01:31:31.540Z,14.51
2017-10-11T01:36:28.836Z,14.50
2017-10-11T01:41:24.337Z,14.51
2017-10-11T01:46:21.251Z,14.44
2017-10-11T01:51:17.771Z,14.41
2017-10-11T01:56:13.442Z,14.28
2017-10-11T02:01:09.604Z,14.37
2017-10-11T02:06:05.224Z,14.41
2017-10-11T02:11:02.044Z,14.37
2017-10-11T02:15:57.575Z,14.36
2017-10-11T02:20:55.465Z,14.33
2017-10-11T02:25:50.838Z,14.29
2017-10-11T02:30:47.059Z,14.43
2017-10-11T02:35:44.808Z,14.33
2017-10-11T02:40:39.912Z,14.26
2017-10-11T02:45:36.208Z,14.18
2017-10-11T02:50:32.690Z,14.08
2017-10-11T02:55:29.821Z,14.08
2017-10-11T03:00:25.556Z,14.17
2017-10-11T03:05:23.174Z,14.17
2017-10-11T03:10:19.373Z,14.23
2017-10-11T03:15:15.039Z,14.30
2017-10-11T03:20:12.066Z,14.32
2017-10-11T03:30:14.160Z,14.30
2017-10-11T03:35:11.547Z,14.45
2017-10-11T03:40:07.258Z,14.47
2017-10-11T03:45:03.038Z,14.48
2017-10-11T03:49:59.178Z,14.47
2017-10-11T03:54:55.359Z,14.50
2017-10-11T03:59:52.497Z,14.66
2017-10-11T04:04:48.685Z,14.53
2017-10-11T04:09:45.421Z,14.58
2017-10-11T04:14:42.023Z,14.53
2017-10-11T04:19:38.924Z,14.41
2017-10-11T04:24:34.605Z,14.32
2017-10-11T04:29:31.636Z,14.37
2017-10-11T04:34:27.322Z,14.28
2017-10-11T04:39:23.366Z,14.30
2017-10-11T04:44:19.153Z,14.50
2017-10-11T04:49:15.189Z,14.36
2017-10-11T04:54:12.248Z,14.45
2017-10-11T04:59:09.084Z,14.43
2017-10-11T05:04:04.733Z,14.41
2017-10-11T05:09:02.471Z,14.47
2017-10-11T05:13:58.887Z,14.47
2017-10-11T05:18:54.492Z,14.45
2017-10-11T05:23:50.263Z,14.44
2017-10-11T05:28:46.436Z,14.45
2017-10-11T05:33:42.144Z,14.43
2017-10-11T05:38:38.984Z,14.33
2017-10-11T05:43:35.015Z,14.41
2017-10-11T05:48:31.714Z,14.37
2017-10-11T05:53:27.255Z,14.32
2017-10-11T05:58:23.248Z,14.37
2017-10-11T06:03:19.934Z,14.33
2017-10-11T06:08:16.210Z,14.47
2017-10-11T06:13:12.245Z,14.51
2017-10-11T06:18:08.126Z,14.44
2017-10-11T06:23:04.187Z,14.54
2017-10-11T06:28:00.965Z,14.44
2017-10-11T06:32:57.347Z,14.58
2017-10-11T06:37:52.887Z,14.66
2017-10-11T06:42:49.740Z,14.65
2017-10-11T06:47:45.754Z,14.63
2017-10-11T06:52:42.706Z,14.78
2017-10-11T06:57:38.221Z,14.62
2017-10-11T07:02:35.129Z,14.72
2017-10-11T07:07:30.871Z,14.63
2017-10-11T07:12:26.793Z,14.85
2017-10-11T07:17:22.485Z,14.89
2017-10-11T07:22:18.381Z,14.91
2017-10-11T07:27:15.817Z,14.92
2017-10-11T07:32:11.737Z,15.02
2017-10-11T07:37:08.983Z,15.00
2017-10-11T07:42:04.802Z,14.97
2017-10-11T07:47:00.815Z,15.09
2017-10-11T07:51:56.903Z,15.21
2017-10-11T07:56:53.016Z,15.18
2017-10-11T08:01:50.009Z,15.33
2017-10-11T08:06:46.678Z,15.36
2017-10-11T08:11:42.362Z,15.29
2017-10-11T08:16:38.314Z,15.35
2017-10-11T08:21:33.894Z,15.35
2017-10-11T08:26:31.000Z,15.43
2017-10-11T08:31:28.623Z,15.61
2017-10-11T08:36:24.356Z,15.55
2017-10-11T08:41:20.228Z,15.58
2017-10-11T08:46:16.142Z,15.58
2017-10-11T08:51:13.442Z,15.75
2017-10-11T08:56:09.214Z,15.64
2017-10-11T09:01:05.188Z,15.70
2017-10-11T09:06:02.277Z,15.73
2017-10-11T09:10:57.981Z,15.80
2017-10-11T09:15:54.105Z,15.84
2017-10-11T09:20:50.111Z,15.92
2017-10-11T09:25:47.405Z,16.10
2017-10-11T09:30:45.014Z,16.35
2017-10-11T09:35:40.401Z,16.29
2017-10-11T09:40:36.304Z,16.23
2017-10-11T09:45:32.302Z,16.20
2017-10-11T09:50:28.168Z,16.28
2017-10-11T09:55:25.275Z,16.26
2017-10-11T10:00:20.772Z,16.05
2017-10-11T10:05:16.594Z,15.92
2017-10-11T10:10:12.604Z,15.92
2017-10-11T10:15:09.114Z,15.92
2017-10-11T10:20:06.258Z,15.72
2017-10-11T10:25:02.954Z,15.73
2017-10-11T10:29:58.435Z,15.61
2017-10-11T10:34:54.003Z,15.79
2017-10-11T10:39:50.115Z,15.72
2017-10-11T10:44:46.336Z,15.76
2017-10-11T10:49:42.533Z,15.82
2017-10-11T10:54:38.991Z,15.92
2017-10-11T10:59:35.373Z,16.13
2017-10-11T11:04:31.902Z,16.50
2017-10-11T11:09:29.398Z,16.78
2017-10-11T11:14:25.929Z,17.46
2017-10-11T11:19:22.487Z,17.54
2017-10-11T11:24:18.414Z,17.56
2017-10-11T11:29:15.175Z,17.16
2017-10-11T11:34:10.728Z,16.84
2017-10-11T11:39:08.994Z,16.68
2017-10-11T11:44:05.380Z,16.75
2017-10-11T11:49:00.479Z,16.69
2017-10-11T11:53:56.225Z,16.61
2017-10-11T11:58:53.225Z,16.50
2017-10-11T12:03:48.722Z,16.49
2017-10-11T12:08:45.700Z,16.42
2017-10-11T12:13:42.184Z,16.20
2017-10-11T12:18:37.673Z,16.02
2017-10-11T12:23:34.254Z,15.94
2017-10-11T12:28:29.842Z,15.97
2017-10-11T12:33:26.933Z,15.98
2017-10-11T12:38:23.557Z,16.10
2017-10-11T12:43:21.238Z,16.29
2017-10-11T12:48:17.848Z,16.53
2017-10-11T12:53:14.921Z,16.43
2017-10-11T12:58:10.892Z,16.68
2017-10-11T13:03:07.397Z,16.58
2017-10-11T13:08:03.625Z,16.57
2017-10-11T13:13:01.238Z,16.56
2017-10-11T13:17:58.370Z,16.56
2017-10-11T13:22:55.978Z,16.46
2017-10-11T13:27:51.648Z,16.47
2017-10-11T13:32:50.744Z,16.58
2017-10-11T13:37:46.411Z,16.50
2017-10-11T13:42:42.266Z,16.46
2017-10-11T13:47:39.084Z,16.46
2017-10-11T13:52:34.874Z,16.35
2017-10-11T13:57:32.726Z,16.49
2017-10-11T14:02:28.129Z,16.39
2017-10-11T14:07:23.591Z,16.41
2017-10-11T14:12:20.642Z,16.35
2017-10-11T14:17:17.284Z,16.12
2017-10-11T14:22:14.031Z,16.09
2017-10-11T14:27:09.489Z,15.83
2017-10-11T14:32:05.434Z,15.82
2017-10-11T14:37:01.336Z,15.82
2017-10-11T14:41:58.494Z,15.91
2017-10-11T14:46:54.560Z,15.82
2017-10-11T14:51:50.951Z,15.79
2017-10-11T14:56:47.644Z,15.76
2017-10-11T15:01:43.479Z,15.84
2017-10-11T15:11:46.157Z,15.76
2017-10-11T15:16:42.623Z,15.68
2017-10-11T15:21:38.645Z,15.70
2017-10-11T15:26:35.467Z,15.62
2017-10-11T15:36:34.803Z,15.59
2017-10-11T15:41:34.940Z,15.59
2017-10-11T15:46:31.024Z,15.57
2017-10-11T15:51:27.813Z,15.54
2017-10-11T15:56:23.562Z,15.47
2017-10-11T16:01:21.834Z,15.43
2017-10-11T16:06:17.150Z,15.40
2017-10-11T16:11:13.806Z,15.33
2017-10-11T16:16:10.025Z,15.33
2017-10-11T16:21:07.145Z,15.35
2017-10-11T16:26:04.936Z,15.27
2017-10-11T16:41:19.530Z,15.22
2017-10-11T16:46:15.184Z,15.21
2017-10-11T16:51:10.918Z,15.25
2017-10-11T16:56:10.367Z,15.22
2017-10-11T17:01:11.995Z,15.21
2017-10-11T17:06:07.886Z,15.24
2017-10-11T17:11:08.101Z,15.27
2017-10-11T17:16:04.266Z,15.10
2017-10-11T17:21:00.149Z,15.18
2017-10-11T17:25:56.461Z,15.18
2017-10-11T17:30:52.551Z,15.24
2017-10-11T17:35:48.835Z,15.11
2017-10-11T17:40:44.959Z,15.15
2017-10-11T17:45:40.902Z,15.18
2017-10-11T17:50:39.268Z,15.19
2017-10-11T17:55:34.670Z,15.11
2017-10-11T18:00:32.102Z,15.15
2017-10-11T18:05:27.845Z,15.18
2017-10-11T18:10:24.663Z,15.09
2017-10-11T18:15:20.988Z,15.14
2017-10-11T18:20:17.662Z,15.15
2017-10-11T18:25:16.729Z,15.11
2017-10-11T18:30:13.305Z,15.10
2017-10-11T18:35:09.494Z,15.18
2017-10-11T18:40:05.431Z,15.04
2017-10-11T18:45:02.598Z,15.18
2017-10-11T18:49:58.371Z,15.14
2017-10-11T18:54:56.682Z,15.09
2017-10-11T18:59:52.336Z,15.04
2017-10-11T19:04:48.435Z,14.99
2017-10-11T19:09:44.474Z,15.06
2017-10-11T19:14:40.427Z,14.96
2017-10-11T19:19:38.532Z,15.07
2017-10-11T19:24:34.697Z,15.04
2017-10-11T19:29:31.464Z,15.10
2017-10-11T19:34:27.011Z,15.11
2017-10-11T19:39:23.395Z,15.14
2017-10-11T19:44:20.453Z,15.10
2017-10-11T19:49:17.127Z,15.21
2017-10-11T19:54:13.671Z,15.28
2017-10-11T19:59:09.326Z,15.33
2017-10-11T20:04:06.351Z,15.39
2017-10-11T20:09:03.243Z,15.44
2017-10-11T20:13:58.942Z,15.47
2017-10-11T20:18:55.993Z,15.43
2017-10-11T20:23:52.842Z,15.43
2017-10-11T20:28:48.494Z,15.44
2017-10-11T20:38:45.358Z,15.39
2017-10-11T20:43:43.905Z,15.42
2017-10-11T20:48:47.097Z,15.44
2017-10-11T20:53:48.312Z,15.40
2017-10-11T20:58:46.186Z,15.51
2017-10-11T21:03:47.760Z,15.43
2017-10-11T21:08:49.043Z,15.40
2017-10-11T21:13:44.546Z,15.37
2017-10-11T21:18:40.570Z,15.31
2017-10-11T21:23:36.295Z,15.28
2017-10-11T21:28:33.490Z,15.25
2017-10-11T21:33:30.551Z,15.21
2017-10-11T21:38:27.418Z,15.22
2017-10-11T21:43:23.374Z,15.11
2017-10-11T21:48:19.314Z,15.10
2017-10-11T21:53:16.217Z,15.15
2017-10-11T21:58:12.622Z,15.21
2017-10-11T22:03:09.009Z,15.17
2017-10-11T22:08:04.868Z,15.17
2017-10-11T22:13:01.067Z,15.17
2017-10-11T22:17:57.233Z,15.15
2017-10-11T22:22:53.331Z,15.14
2017-10-11T22:27:50.246Z,15.24
2017-10-11T22:32:45.836Z,15.25
2017-10-11T22:37:42.770Z,15.31
2017-10-11T22:42:39.542Z,15.35
2017-10-11T22:47:35.169Z,15.39
2017-10-11T22:52:31.987Z,15.44
2017-10-11T22:57:27.588Z,15.59
2017-10-11T23:02:23.408Z,15.61
2017-10-11T23:07:19.681Z,15.67
2017-10-11T23:12:16.771Z,15.70
2017-10-11T23:17:12.375Z,15.72
2017-10-11T23:22:10.455Z,15.73
2017-10-11T23:27:06.743Z,15.77
2017-10-11T23:32:02.551Z,15.73
2017-10-11T23:36:58.429Z,15.77
2017-10-11T23:41:54.517Z,15.86
2017-10-11T23:46:50.445Z,15.75
2017-10-11T23:51:46.561Z,15.76
2017-10-11T23:56:42.373Z,15.91
